createdAt,value
2019-05-14T00:02:02.784Z,4.90
2019-05-14T00:04:32.572Z,4.90
2019-05-14T00:07:02.223Z,5.00
2019-05-14T00:09:32.277Z,5.10
2019-05-14T00:12:02.816Z,5.00
2019-05-14T00:14:39.694Z,5.00
2019-05-14T00:17:03.904Z,5.10
2019-05-14T00:19:33.548Z,5.10
2019-05-14T00:22:03.146Z,5.00
2019-05-14T00:24:32.788Z,5.10
2019-05-14T00:27:02.388Z,5.00
2019-05-14T00:29:32.238Z,5.00
2019-05-14T00:32:02.105Z,5.10
2019-05-14T00:34:31.827Z,5.00
2019-05-14T00:37:01.717Z,5.00
2019-05-14T00:39:31.997Z,5.00
2019-05-14T00:42:01.956Z,5.00
2019-05-14T00:44:32.363Z,5.00
2019-05-14T00:47:02.431Z,5.00
2019-05-14T00:49:32.067Z,5.00
2019-05-14T00:52:02.275Z,5.00
2019-05-14T00:54:32.384Z,4.90
2019-05-14T00:57:02.031Z,4.90
2019-05-14T00:59:32.272Z,4.80
2019-05-14T01:02:03.068Z,4.80
2019-05-14T01:04:32.960Z,4.90
2019-05-14T01:07:02.724Z,4.90
2019-05-14T01:09:32.324Z,4.80
2019-05-14T01:12:02.063Z,4.90
2019-05-14T01:14:31.862Z,4.80
2019-05-14T01:17:02.186Z,4.90
2019-05-14T01:19:31.991Z,4.90
2019-05-14T01:22:01.842Z,4.90
2019-05-14T01:24:32.254Z,4.90
2019-05-14T01:27:02.007Z,4.90
2019-05-14T01:29:31.948Z,4.80
2019-05-14T01:32:02.204Z,4.70
2019-05-14T01:34:32.437Z,4.70
2019-05-14T01:37:02.434Z,4.70
2019-05-14T01:39:32.366Z,4.70
2019-05-14T01:42:02.670Z,4.70
2019-05-14T01:44:32.444Z,4.60
2019-05-14T01:47:02.157Z,4.60
2019-05-14T01:49:32.232Z,4.60
2019-05-14T01:52:02.186Z,4.50
2019-05-14T01:54:31.933Z,4.50
2019-05-14T01:57:02.276Z,4.40
2019-05-14T01:59:32.485Z,4.40
2019-05-14T02:02:02.520Z,4.30
2019-05-14T02:04:32.369Z,4.30
2019-05-14T02:07:02.404Z,4.30
2019-05-14T02:09:32.346Z,4.30
2019-05-14T02:12:02.348Z,4.20
2019-05-14T02:14:32.132Z,4.20
2019-05-14T02:17:02.115Z,4.20
2019-05-14T02:19:31.951Z,4.30
2019-05-14T02:22:02.149Z,4.30
2019-05-14T02:24:32.235Z,4.30
2019-05-14T02:27:02.117Z,4.30
2019-05-14T02:29:32.202Z,4.40
2019-05-14T02:32:02.174Z,4.60
2019-05-14T02:34:31.821Z,4.60
2019-05-14T02:37:01.412Z,4.60
2019-05-14T02:39:31.030Z,4.60
2019-05-14T02:42:00.989Z,4.60
2019-05-14T02:44:30.897Z,4.60
2019-05-14T02:47:00.556Z,4.70
2019-05-14T02:49:30.410Z,4.70
2019-05-14T02:52:00.693Z,4.70
2019-05-14T02:54:30.304Z,4.80
2019-05-14T02:57:00.368Z,4.90
2019-05-14T02:59:30.888Z,4.90
2019-05-14T03:02:00.503Z,5.00
2019-05-14T03:04:30.330Z,5.00
2019-05-14T03:07:00.360Z,5.10
2019-05-14T03:09:30.095Z,5.10
2019-05-14T03:11:59.857Z,5.10
2019-05-14T03:14:30.388Z,5.20
2019-05-14T03:17:00.119Z,5.20
2019-05-14T03:19:30.073Z,5.30
2019-05-14T03:22:00.320Z,5.30
2019-05-14T03:24:30.291Z,5.30
2019-05-14T03:27:00.001Z,5.30
2019-05-14T03:29:41.036Z,5.40
2019-05-14T03:32:12.628Z,5.50
2019-05-14T03:34:43.902Z,5.50
2019-05-14T03:37:14.544Z,5.60
2019-05-14T03:39:44.172Z,5.60
2019-05-14T03:42:13.769Z,5.70
2019-05-14T03:44:43.424Z,5.80
2019-05-14T03:47:15.437Z,5.80
2019-05-14T03:49:45.431Z,5.80
2019-05-14T03:52:15.567Z,5.80
2019-05-14T03:54:45.238Z,5.80
2019-05-14T03:57:15.194Z,5.90
2019-05-14T03:59:45.139Z,6.00
2019-05-14T04:02:15.429Z,6.00
2019-05-14T04:04:45.093Z,6.00
2019-05-14T04:07:19.384Z,6.00
2019-05-14T04:09:49.304Z,6.00
2019-05-14T04:12:21.566Z,6.00
2019-05-14T04:14:54.401Z,6.10
2019-05-14T04:17:33.833Z,6.10
2019-05-14T04:20:00.160Z,6.10
2019-05-14T04:22:33.086Z,6.10
2019-05-14T04:25:10.565Z,6.10
2019-05-14T04:27:41.433Z,6.10
2019-05-14T04:30:11.844Z,6.10
2019-05-14T04:32:43.020Z,6.10
2019-05-14T04:35:12.825Z,6.10
2019-05-14T04:37:42.965Z,6.20
2019-05-14T04:40:12.665Z,6.20
2019-05-14T04:42:42.344Z,6.20
2019-05-14T04:45:12.449Z,6.20
2019-05-14T04:47:42.593Z,6.10
2019-05-14T04:50:12.496Z,6.20
2019-05-14T04:52:42.144Z,6.20
2019-05-14T04:55:11.961Z,6.30
2019-05-14T04:57:41.587Z,6.30
2019-05-14T05:00:12.525Z,6.20
2019-05-14T05:02:42.394Z,6.30
2019-05-14T05:05:12.271Z,6.30
2019-05-14T05:07:41.936Z,6.40
2019-05-14T05:10:11.682Z,6.40
2019-05-14T05:12:41.308Z,6.50
2019-05-14T05:15:11.117Z,6.60
2019-05-14T05:17:48.004Z,6.70
2019-05-14T05:20:12.854Z,6.70
2019-05-14T05:22:42.439Z,6.70
2019-05-14T05:25:12.116Z,6.80
2019-05-14T05:27:41.803Z,7.00
2019-05-14T05:30:11.440Z,7.20
2019-05-14T05:32:41.196Z,7.20
2019-05-14T05:35:10.940Z,7.30
2019-05-14T05:37:40.605Z,7.40
2019-05-14T05:40:11.073Z,7.40
2019-05-14T05:42:40.699Z,7.50
2019-05-14T05:45:10.885Z,7.60
2019-05-14T05:47:54.036Z,7.60
2019-05-14T05:50:11.852Z,7.60
2019-05-14T05:52:41.479Z,7.40
2019-05-14T05:55:11.132Z,7.50
2019-05-14T05:57:40.849Z,7.60
2019-05-14T06:00:11.204Z,7.60
2019-05-14T06:02:41.075Z,7.60
2019-05-14T06:50:16.040Z,9.70
2019-05-14T06:52:45.871Z,9.80
2019-05-14T06:55:17.884Z,9.90
2019-05-14T06:57:48.061Z,10.00
2019-05-14T07:00:18.910Z,10.10
2019-05-14T07:02:49.291Z,10.00
2019-05-14T07:05:19.237Z,10.30
2019-05-14T07:07:51.535Z,10.40
2019-05-14T07:10:21.533Z,10.60
2019-05-14T07:12:54.032Z,10.60
2019-05-14T07:15:24.094Z,10.40
2019-05-14T07:17:54.184Z,10.50
2019-05-14T07:20:23.944Z,10.50
2019-05-14T07:22:54.223Z,10.50
2019-05-14T07:25:24.082Z,10.70
2019-05-14T07:27:54.743Z,10.70
2019-05-14T07:30:24.740Z,10.80
2019-05-14T07:32:54.536Z,11.00
2019-05-14T07:35:28.697Z,11.10
2019-05-14T07:37:59.154Z,11.10
2019-05-14T07:40:29.335Z,11.30
2019-05-14T07:42:59.303Z,11.40
2019-05-14T07:45:29.344Z,11.30
2019-05-14T07:47:59.371Z,11.00
2019-05-14T07:50:29.387Z,11.20
2019-05-14T07:53:02.669Z,11.20
2019-05-14T07:55:31.072Z,11.30
2019-05-14T07:58:01.076Z,11.30
2019-05-14T08:00:31.265Z,11.40
2019-05-14T08:03:01.301Z,11.50
2019-05-14T08:05:31.324Z,11.50
2019-05-14T08:08:01.321Z,11.50
2019-05-14T08:10:31.339Z,11.30
2019-05-14T08:13:01.344Z,11.40
2019-05-14T08:15:31.264Z,11.60
2019-05-14T08:18:01.179Z,11.90
2019-05-14T08:20:31.300Z,11.90
2019-05-14T08:23:01.132Z,11.90
2019-05-14T08:25:31.032Z,12.20
2019-05-14T08:28:00.937Z,12.40
2019-05-14T08:30:30.954Z,13.00
2019-05-14T08:33:00.888Z,13.50
2019-05-14T08:35:34.199Z,13.30
2019-05-14T08:38:08.210Z,13.70
2019-05-14T08:40:33.793Z,14.10
2019-05-14T08:43:03.723Z,14.30
2019-05-14T08:45:33.705Z,14.90
2019-05-14T08:48:03.316Z,15.20
2019-05-14T08:50:33.164Z,15.50
2019-05-14T08:53:02.928Z,15.60
2019-05-14T08:55:32.972Z,15.50
2019-05-14T08:58:02.969Z,15.30
2019-05-14T09:00:33.100Z,16.10
2019-05-14T09:03:03.319Z,16.50
2019-05-14T09:05:33.323Z,16.30
2019-05-14T09:08:05.927Z,16.00
2019-05-14T09:10:35.933Z,16.20
2019-05-14T09:13:06.035Z,16.00
2019-05-14T09:15:38.340Z,16.00
2019-05-14T09:18:11.530Z,16.20
2019-05-14T09:20:39.427Z,16.00
2019-05-14T09:23:09.380Z,15.80
2019-05-14T09:25:47.902Z,15.80
2019-05-14T09:28:11.064Z,15.60
2019-05-14T09:30:40.980Z,15.50
2019-05-14T09:33:11.015Z,15.80
2019-05-14T09:35:41.002Z,16.10
2019-05-14T09:38:10.828Z,16.30
2019-05-14T09:40:48.703Z,16.00
2019-05-14T09:43:18.176Z,15.60
2019-05-14T09:45:48.314Z,15.60
2019-05-14T09:48:18.252Z,15.10
2019-05-14T09:50:48.902Z,14.80
2019-05-14T09:53:19.088Z,14.50
2019-05-14T09:55:49.242Z,14.50
2019-05-14T09:58:19.944Z,14.30
2019-05-14T10:00:49.955Z,14.40
2019-05-14T10:03:19.982Z,14.50
2019-05-14T10:05:50.284Z,14.50
2019-05-14T10:08:20.126Z,14.70
2019-05-14T10:10:50.149Z,14.80
2019-05-14T10:13:20.146Z,15.00
2019-05-14T10:15:49.969Z,15.20
2019-05-14T10:18:19.928Z,14.90
2019-05-14T10:20:49.996Z,14.80
2019-05-14T10:23:19.911Z,15.00
2019-05-14T10:25:49.802Z,14.90
2019-05-14T10:28:19.845Z,15.00
2019-05-14T10:30:49.944Z,15.00
2019-05-14T10:33:20.061Z,15.20
2019-05-14T10:35:50.097Z,15.30
2019-05-14T10:38:20.015Z,15.30
2019-05-14T10:40:49.922Z,15.30
2019-05-14T10:43:19.928Z,15.30
2019-05-14T10:45:49.968Z,15.40
2019-05-14T10:48:19.879Z,15.80
2019-05-14T10:50:57.321Z,16.00
2019-05-14T10:53:21.436Z,15.90
2019-05-14T10:55:51.332Z,16.10
2019-05-14T10:58:21.662Z,16.10
2019-05-14T11:00:51.690Z,16.00
2019-05-14T11:03:21.485Z,16.20
2019-05-14T11:05:51.540Z,16.40
2019-05-14T11:08:21.333Z,16.70
2019-05-14T11:10:51.232Z,16.50
2019-05-14T11:13:21.145Z,16.90
2019-05-14T11:15:51.173Z,16.90
2019-05-14T11:18:21.083Z,16.90
2019-05-14T11:20:51.865Z,17.00
2019-05-14T11:23:21.720Z,17.10
2019-05-14T11:25:51.739Z,16.80
2019-05-14T11:28:21.557Z,16.90
2019-05-14T11:30:51.463Z,17.30
2019-05-14T11:33:21.260Z,17.30
2019-05-14T11:35:51.296Z,17.20
2019-05-14T11:38:29.843Z,17.20
2019-05-14T11:40:52.973Z,17.30
2019-05-14T11:43:22.888Z,17.40
2019-05-14T11:45:52.880Z,16.90
2019-05-14T11:48:23.022Z,16.90
2019-05-14T11:50:52.959Z,17.30
2019-05-14T11:53:22.983Z,17.80
2019-05-14T11:55:52.969Z,17.90
2019-05-14T11:58:22.984Z,18.10
2019-05-14T12:00:52.980Z,18.10
2019-05-14T12:03:23.066Z,18.10
2019-05-14T12:05:53.052Z,17.80
2019-05-14T12:08:23.060Z,18.20
2019-05-14T12:10:53.060Z,18.50
2019-05-14T12:13:23.082Z,18.40
2019-05-14T12:15:52.917Z,17.90
2019-05-14T12:18:22.892Z,17.30
2019-05-14T12:20:52.516Z,16.70
2019-05-14T12:23:22.629Z,17.10
2019-05-14T12:25:52.533Z,17.40
2019-05-14T12:28:22.488Z,18.10
2019-05-14T12:30:52.140Z,19.30
2019-05-14T12:33:21.748Z,20.20
2019-05-14T12:35:52.001Z,21.70
2019-05-14T12:38:23.016Z,22.70
2019-05-14T12:40:52.714Z,24.00
2019-05-14T12:43:22.341Z,24.30
2019-05-14T12:45:52.265Z,24.50
2019-05-14T12:48:22.100Z,25.10
2019-05-14T12:50:52.010Z,25.20
2019-05-14T12:53:22.227Z,25.70
2019-05-14T12:55:58.259Z,26.60
2019-05-14T12:58:25.324Z,27.00
2019-05-14T13:00:55.116Z,26.80
2019-05-14T13:03:24.719Z,26.70
2019-05-14T13:05:54.640Z,27.60
2019-05-14T13:08:24.660Z,28.00
2019-05-14T13:10:54.288Z,28.00
2019-05-14T13:13:23.975Z,27.60
2019-05-14T13:15:53.993Z,27.70
2019-05-14T13:18:23.891Z,27.70
2019-05-14T13:20:53.611Z,28.00
2019-05-14T13:23:23.396Z,27.90
2019-05-14T13:25:53.459Z,28.10
2019-05-14T13:28:23.345Z,28.20
2019-05-14T13:30:53.578Z,28.90
2019-05-14T13:33:23.188Z,29.60
2019-05-14T13:35:52.796Z,29.90
2019-05-14T13:38:22.408Z,29.10
2019-05-14T13:40:52.292Z,29.40
2019-05-14T13:43:22.212Z,29.10
2019-05-14T13:45:52.124Z,29.50
2019-05-14T13:48:21.763Z,29.80
2019-05-14T13:50:51.433Z,30.60
2019-05-14T13:53:21.050Z,29.90
2019-05-14T13:55:57.573Z,30.40
2019-05-14T13:58:22.113Z,30.90
2019-05-14T14:00:52.381Z,30.20
2019-05-14T14:03:22.104Z,30.60
2019-05-14T14:05:51.721Z,30.90
2019-05-14T14:08:21.332Z,30.90
2019-05-14T14:10:53.246Z,30.80
2019-05-14T14:13:22.292Z,30.30
2019-05-14T14:15:51.908Z,30.00
2019-05-14T14:18:21.750Z,30.20
2019-05-14T14:20:51.370Z,30.90
2019-05-14T14:23:26.958Z,31.70
2019-05-14T14:25:54.902Z,31.20
2019-05-14T14:28:23.585Z,31.00
2019-05-14T14:30:53.210Z,30.50
2019-05-14T14:33:22.895Z,29.20
2019-05-14T14:35:52.516Z,29.20
2019-05-14T14:38:22.213Z,29.50
2019-05-14T14:40:51.849Z,29.20
2019-05-14T14:43:21.532Z,28.80
2019-05-14T14:45:51.603Z,29.60
2019-05-14T14:48:21.641Z,29.00
2019-05-14T14:50:51.660Z,29.10
2019-05-14T14:53:40.925Z,28.00
2019-05-14T14:55:53.313Z,28.10
2019-05-14T14:58:23.216Z,28.40
2019-05-14T15:00:53.148Z,28.20
2019-05-14T15:03:23.175Z,28.60
2019-05-14T15:05:53.136Z,29.00
2019-05-14T15:08:23.284Z,29.40
2019-05-14T15:10:52.986Z,29.10
2019-05-14T15:13:22.771Z,28.80
2019-05-14T15:15:52.395Z,28.40
2019-05-14T15:18:22.008Z,29.00
2019-05-14T15:20:51.716Z,28.70
2019-05-14T15:23:21.516Z,27.90
2019-05-14T15:25:51.188Z,27.10
2019-05-14T15:28:21.112Z,26.90
2019-05-14T15:30:50.820Z,27.10
2019-05-14T15:33:20.451Z,27.00
2019-05-14T15:35:50.059Z,27.00
2019-05-14T15:38:19.673Z,26.90
2019-05-14T15:40:49.292Z,26.70
2019-05-14T15:43:18.965Z,27.10
2019-05-14T15:45:48.592Z,26.80
2019-05-14T15:48:19.894Z,27.40
2019-05-14T15:50:50.337Z,26.60
2019-05-14T15:53:20.102Z,26.80
2019-05-14T15:55:49.742Z,26.40
2019-05-14T15:58:21.247Z,26.90
2019-05-14T16:00:50.627Z,26.30
2019-05-14T16:03:20.253Z,26.30
2019-05-14T16:05:49.911Z,25.70
2019-05-14T16:08:22.889Z,25.60
2019-05-14T16:10:51.225Z,25.50
2019-05-14T16:13:21.355Z,25.10
2019-05-14T16:15:51.040Z,25.30
2019-05-14T16:18:22.392Z,25.70
2019-05-14T16:20:52.400Z,24.90
2019-05-14T16:23:22.320Z,24.50
2019-05-14T16:25:52.428Z,24.10
2019-05-14T16:28:22.460Z,24.30
2019-05-14T16:30:52.464Z,24.70
2019-05-14T16:33:22.284Z,24.70
2019-05-14T16:35:52.210Z,25.30
2019-05-14T16:38:23.144Z,24.20
2019-05-14T16:40:53.471Z,24.00
2019-05-14T16:43:23.473Z,23.60
2019-05-14T16:45:53.410Z,23.80
2019-05-14T16:48:23.492Z,24.00
2019-05-14T16:50:53.107Z,24.20
2019-05-14T16:53:22.937Z,24.10
2019-05-14T16:55:52.928Z,23.70
2019-05-14T16:58:22.968Z,24.00
2019-05-14T17:00:52.866Z,24.00
2019-05-14T17:03:24.682Z,23.00
2019-05-14T17:05:54.628Z,21.80
2019-05-14T17:08:24.677Z,20.90
2019-05-14T17:10:58.922Z,20.70
2019-05-14T17:13:28.634Z,20.70
2019-05-14T17:15:59.042Z,20.10
2019-05-14T17:18:29.257Z,20.30
2019-05-14T17:20:59.590Z,20.10
2019-05-14T17:23:29.455Z,19.80
2019-05-14T17:25:59.118Z,19.90
2019-05-14T17:28:29.098Z,18.90
2019-05-14T17:30:58.910Z,18.20
2019-05-14T17:33:29.198Z,17.80
2019-05-14T17:35:59.448Z,17.70
2019-05-14T17:38:29.460Z,17.70
2019-05-14T17:40:59.864Z,17.40
2019-05-14T17:43:29.993Z,16.90
2019-05-14T17:46:00.112Z,16.70
2019-05-14T17:48:30.025Z,16.50
2019-05-14T17:51:00.043Z,16.30
2019-05-14T17:53:30.090Z,15.90
2019-05-14T17:55:59.988Z,15.70
2019-05-14T17:58:29.812Z,15.50
2019-05-14T18:00:59.697Z,15.30
2019-05-14T18:03:29.728Z,15.00
2019-05-14T18:05:59.630Z,14.60
2019-05-14T18:08:30.141Z,14.30
2019-05-14T18:11:01.771Z,13.80
2019-05-14T18:13:33.234Z,13.40
2019-05-14T18:16:03.228Z,13.20
2019-05-14T18:18:33.120Z,12.70
2019-05-14T18:21:03.136Z,12.30
2019-05-14T18:23:33.071Z,11.70
2019-05-14T18:26:08.359Z,11.20
2019-05-14T18:28:38.128Z,10.80
2019-05-14T18:31:09.420Z,10.60
2019-05-14T18:33:40.261Z,10.50
2019-05-14T18:36:10.490Z,10.20
2019-05-14T18:38:40.482Z,10.00
2019-05-14T18:41:10.520Z,9.80
2019-05-14T18:43:40.638Z,9.60
2019-05-14T18:46:10.532Z,9.50
2019-05-14T18:48:40.696Z,9.40
2019-05-14T18:51:10.696Z,9.30
2019-05-14T18:53:40.680Z,9.20
2019-05-14T18:56:20.391Z,9.10
2019-05-14T18:58:42.364Z,9.00
2019-05-14T19:01:12.399Z,8.90
2019-05-14T19:03:42.394Z,8.90
2019-05-14T19:06:12.512Z,8.70
2019-05-14T19:08:42.542Z,8.60
2019-05-14T19:11:12.552Z,8.60
2019-05-14T19:13:42.560Z,8.60
2019-05-14T19:16:12.488Z,8.50
2019-05-14T19:18:42.480Z,8.40
2019-05-14T19:21:12.430Z,8.30
2019-05-14T19:23:45.110Z,8.30
2019-05-14T19:26:14.169Z,8.20
2019-05-14T19:28:44.204Z,8.10
2019-05-14T19:31:14.096Z,8.10
2019-05-14T19:33:44.000Z,8.00
2019-05-14T19:36:14.045Z,7.90
2019-05-14T19:38:43.938Z,7.90
2019-05-14T19:41:13.967Z,7.70
2019-05-14T19:43:44.001Z,7.70
2019-05-14T19:46:13.917Z,7.50
2019-05-14T19:48:43.908Z,7.50
2019-05-14T19:51:13.928Z,7.50
2019-05-14T19:53:45.949Z,7.40
2019-05-14T19:56:16.117Z,7.30
2019-05-14T19:58:46.149Z,7.30
2019-05-14T20:01:16.145Z,7.10
2019-05-14T20:03:46.268Z,7.00
2019-05-14T20:06:18.541Z,7.00
2019-05-14T20:08:48.338Z,6.90
2019-05-14T20:11:19.294Z,6.80
2019-05-14T20:13:50.783Z,6.80
2019-05-14T20:16:20.792Z,6.70
2019-05-14T20:18:51.060Z,6.50
2019-05-14T20:21:21.176Z,6.50
2019-05-14T20:23:50.988Z,6.30
2019-05-14T20:26:21.024Z,6.10
2019-05-14T20:28:50.934Z,6.00
2019-05-14T20:31:21.053Z,5.90
2019-05-14T20:33:51.067Z,5.90
2019-05-14T20:36:20.972Z,6.00
2019-05-14T20:38:50.993Z,6.00
2019-05-14T20:41:21.840Z,6.00
2019-05-14T20:43:51.932Z,5.90
2019-05-14T20:46:21.785Z,5.80
2019-05-14T20:48:53.596Z,5.50
2019-05-14T20:51:23.507Z,5.30
2019-05-14T20:53:53.563Z,5.40
2019-05-14T20:56:23.476Z,5.20
2019-05-14T20:58:53.273Z,5.10
2019-05-14T21:01:23.115Z,5.00
2019-05-14T21:03:53.095Z,5.00
2019-05-14T21:06:23.220Z,5.10
2019-05-14T21:08:53.184Z,5.10
2019-05-14T21:11:23.240Z,5.10
2019-05-14T21:13:53.157Z,5.10
2019-05-14T21:16:24.960Z,4.90
2019-05-14T21:18:54.820Z,4.90
2019-05-14T21:21:24.838Z,4.90
2019-05-14T21:23:54.849Z,4.80
2019-05-14T21:26:24.792Z,4.50
2019-05-14T21:28:54.411Z,4.50
2019-05-14T21:31:24.096Z,4.40
2019-05-14T21:33:53.728Z,4.30
2019-05-14T21:36:23.350Z,4.30
2019-05-14T21:38:53.084Z,4.40
2019-05-14T21:41:22.696Z,4.30
2019-05-14T21:43:52.308Z,4.30
2019-05-14T21:46:22.020Z,4.20
2019-05-14T21:48:51.637Z,4.10
2019-05-14T21:51:21.256Z,4.20
2019-05-14T21:53:50.880Z,4.20
2019-05-14T21:56:21.832Z,4.10
2019-05-14T21:58:51.732Z,3.90
2019-05-14T22:01:23.438Z,3.70
2019-05-14T22:03:53.472Z,3.50
2019-05-14T22:06:23.148Z,3.40
2019-05-14T22:08:52.769Z,3.40
2019-05-14T22:11:22.645Z,3.50
2019-05-14T22:13:52.212Z,3.50
2019-05-14T22:16:21.840Z,3.40
2019-05-14T22:18:51.469Z,3.60
2019-05-14T22:21:21.061Z,3.60
2019-05-14T22:23:50.693Z,3.60
2019-05-14T22:26:20.440Z,3.60
2019-05-14T22:28:50.064Z,3.60
2019-05-14T22:31:19.673Z,3.60
2019-05-14T22:33:49.588Z,3.60
2019-05-14T22:36:21.593Z,3.60
2019-05-14T22:38:51.298Z,3.70
2019-05-14T22:41:20.903Z,3.60
2019-05-14T22:43:51.455Z,3.50
2019-05-14T22:46:21.212Z,3.50
2019-05-14T22:48:51.696Z,3.60
2019-05-14T22:51:21.356Z,3.60
2019-05-14T22:53:51.004Z,3.60
2019-05-14T22:56:20.705Z,3.60
2019-05-14T22:58:50.344Z,3.60
2019-05-14T23:01:19.971Z,3.50
2019-05-14T23:03:49.660Z,3.50
2019-05-14T23:06:19.272Z,3.50
2019-05-14T23:08:49.005Z,3.50
2019-05-14T23:11:19.834Z,3.40
2019-05-14T23:13:49.633Z,3.40
2019-05-14T23:16:31.063Z,3.40
2019-05-14T23:18:50.599Z,3.40
2019-05-14T23:21:20.252Z,3.40
2019-05-14T23:23:49.848Z,3.40
2019-05-14T23:26:19.566Z,3.40
2019-05-14T23:28:49.335Z,3.20
2019-05-14T23:31:19.024Z,3.40
2019-05-14T23:33:48.968Z,3.50
2019-05-14T23:36:18.971Z,3.50
2019-05-14T23:38:49.307Z,3.50
2019-05-14T23:41:19.596Z,3.60
2019-05-14T23:43:49.212Z,3.70
2019-05-14T23:46:18.808Z,3.70
2019-05-14T23:48:48.625Z,3.70
2019-05-14T23:51:18.450Z,3.70
2019-05-14T23:53:48.399Z,3.80
2019-05-14T23:56:19.335Z,3.70
2019-05-14T23:58:55.711Z,3.70
